createdAt,value
2022-10-10T00:04:34.060Z,2.60
2022-10-10T00:12:09.171Z,2.03
2022-10-10T00:19:42.887Z,2.10
2022-10-10T00:27:18.033Z,2.72
2022-10-10T00:34:51.994Z,1.85
2022-10-10T00:42:27.088Z,2.37
2022-10-10T00:50:00.912Z,2.60
2022-10-10T00:57:35.995Z,2.00
2022-10-10T01:05:10.220Z,1.67
2022-10-10T01:12:58.088Z,2.33
2022-10-10T01:20:49.389Z,2.40
2022-10-10T01:28:40.250Z,2.30
2022-10-10T01:36:22.399Z,2.13
2022-10-10T01:43:59.199Z,2.30
2022-10-10T01:51:51.717Z,2.53
2022-10-10T01:59:43.632Z,2.40
2022-10-10T02:07:22.751Z,2.40
2022-10-10T02:15:05.452Z,2.53
2022-10-10T02:22:42.490Z,2.42
2022-10-10T02:30:19.574Z,2.42
2022-10-10T02:37:55.307Z,2.00
2022-10-10T02:45:33.157Z,2.70
2022-10-10T02:53:06.885Z,2.20
2022-10-10T03:00:42.113Z,2.22
2022-10-10T03:08:15.816Z,2.13
2022-10-10T03:15:51.073Z,2.20
2022-10-10T03:23:26.054Z,2.40
2022-10-10T03:31:01.211Z,2.53
2022-10-10T03:38:35.122Z,2.22
2022-10-10T03:46:15.092Z,2.43
2022-10-10T03:53:49.898Z,2.90
2022-10-10T04:01:24.920Z,2.53
2022-10-10T04:08:58.607Z,2.53
2022-10-10T04:16:33.610Z,2.60
2022-10-10T04:24:07.598Z,2.83
2022-10-10T04:31:42.906Z,3.17
2022-10-10T04:39:16.580Z,3.53
2022-10-10T04:46:51.683Z,3.53
2022-10-10T04:54:25.427Z,3.58
2022-10-10T05:02:01.863Z,3.03
2022-10-10T05:09:36.034Z,2.55
2022-10-10T05:17:11.081Z,3.00
2022-10-10T05:24:44.922Z,3.28
2022-10-10T05:32:20.079Z,3.55
2022-10-10T05:39:54.818Z,3.13
2022-10-10T05:47:29.884Z,3.30
2022-10-10T05:55:03.806Z,3.00
2022-10-10T06:02:39.108Z,3.60
2022-10-10T06:10:12.784Z,3.95
2022-10-10T06:17:47.801Z,3.50
2022-10-10T06:25:38.960Z,3.63
2022-10-10T06:33:18.619Z,3.92
2022-10-10T06:40:52.364Z,2.97
2022-10-10T06:48:27.863Z,3.20
2022-10-10T06:56:01.938Z,4.40
2022-10-10T07:03:37.160Z,3.83
2022-10-10T07:11:11.228Z,3.40
2022-10-10T07:18:46.384Z,3.90
2022-10-10T07:26:22.332Z,4.18
2022-10-10T07:33:57.297Z,3.80
2022-10-10T07:49:05.967Z,3.78
2022-10-10T07:56:39.796Z,2.90
2022-10-10T08:04:14.839Z,3.75
2022-10-10T08:11:48.445Z,3.13
2022-10-10T08:19:23.712Z,3.05
2022-10-10T08:26:57.993Z,3.08
2022-10-10T08:34:33.162Z,3.47
2022-10-10T08:42:07.676Z,2.97
2022-10-10T08:49:48.003Z,3.05
2022-10-10T08:57:26.246Z,2.85
2022-10-10T09:05:01.478Z,2.53
2022-10-10T09:12:46.130Z,2.90
2022-10-10T09:20:36.100Z,2.80
2022-10-10T09:28:30.035Z,3.85
2022-10-10T09:36:11.278Z,2.72
2022-10-10T09:43:45.198Z,3.20
2022-10-10T09:51:21.319Z,2.45
2022-10-10T09:58:56.632Z,2.28
2022-10-10T10:06:31.967Z,2.78
2022-10-10T10:14:05.857Z,1.90
2022-10-10T10:21:52.171Z,2.53
2022-10-10T10:29:30.683Z,3.65
2022-10-10T10:37:15.859Z,2.67
2022-10-10T10:45:00.485Z,2.60
2022-10-10T10:52:50.910Z,2.47
2022-10-10T11:01:22.453Z,1.75
2022-10-10T11:08:50.004Z,2.00
2022-10-10T11:24:33.894Z,2.50
2022-10-10T11:32:13.226Z,2.35
2022-10-10T11:39:56.271Z,2.42
2022-10-10T11:47:36.236Z,2.90
2022-10-10T11:55:19.560Z,2.42
2022-10-10T12:02:53.922Z,2.67
2022-10-10T12:10:33.926Z,2.57
2022-10-10T12:18:07.676Z,1.98
2022-10-10T12:25:45.657Z,2.53
2022-10-10T12:33:21.810Z,2.67
2022-10-10T12:41:14.496Z,2.10
2022-10-10T12:49:00.690Z,2.70
2022-10-10T12:56:42.099Z,2.58
2022-10-10T13:04:17.701Z,2.78
2022-10-10T13:11:59.114Z,2.75
2022-10-10T13:19:33.223Z,2.15
2022-10-10T13:27:18.170Z,2.92
2022-10-10T13:34:57.069Z,3.03
2022-10-10T13:42:37.619Z,2.80
2022-10-10T13:50:19.910Z,2.85
2022-10-10T13:58:00.848Z,3.20
2022-10-10T14:05:35.497Z,2.45
2022-10-10T14:13:19.167Z,4.07
2022-10-10T14:20:55.416Z,3.30
2022-10-10T14:28:32.913Z,2.80
2022-10-10T14:36:07.630Z,2.55
2022-10-10T14:43:45.895Z,3.63
2022-10-10T14:51:34.158Z,2.60
2022-10-10T14:59:18.212Z,3.05
2022-10-10T15:07:14.710Z,2.58
2022-10-10T15:14:50.439Z,3.10
2022-10-10T15:29:59.210Z,3.55
2022-10-10T15:37:32.948Z,3.20
2022-10-10T15:45:09.331Z,3.83
2022-10-10T15:52:43.103Z,2.63
2022-10-10T16:00:19.196Z,2.78
2022-10-10T16:07:53.019Z,4.40
2022-10-10T16:15:28.035Z,4.20
2022-10-10T16:23:01.634Z,3.83
2022-10-10T16:30:36.680Z,3.83
2022-10-10T16:45:46.066Z,3.80
2022-10-10T16:53:32.102Z,3.90
2022-10-10T17:01:10.010Z,4.10
2022-10-10T17:08:44.731Z,4.30
2022-10-10T17:24:17.740Z,7.25
2022-10-10T17:31:55.139Z,8.83
2022-10-10T17:39:29.060Z,7.35
2022-10-10T17:47:04.260Z,7.13
2022-10-10T17:54:38.084Z,6.32
2022-10-10T18:02:16.340Z,6.70
2022-10-10T18:17:53.579Z,6.82
2022-10-10T18:25:27.667Z,6.10
2022-10-10T18:33:02.704Z,6.30
2022-10-10T18:40:36.397Z,6.68
2022-10-10T18:48:11.427Z,6.60
2022-10-10T19:03:20.151Z,7.60
2022-10-10T19:10:54.847Z,5.95
2022-10-10T19:18:29.768Z,7.05
2022-10-10T19:26:05.545Z,6.95
2022-10-10T19:33:41.608Z,7.00
2022-10-10T19:41:15.791Z,7.00
2022-10-10T19:48:51.876Z,6.27
2022-10-10T19:56:27.586Z,6.78
2022-10-10T20:04:02.758Z,6.85
2022-10-10T20:11:36.688Z,6.95
2022-10-10T20:19:11.619Z,6.93
2022-10-10T20:26:45.509Z,7.32
2022-10-10T20:34:20.502Z,7.50
2022-10-10T20:49:28.913Z,5.53
2022-10-10T21:04:37.329Z,4.10
2022-10-10T21:12:10.911Z,4.00
2022-10-10T21:19:45.924Z,3.92
2022-10-10T21:34:56.477Z,2.85
2022-10-10T21:42:30.208Z,3.17
2022-10-10T21:50:06.070Z,4.20
2022-10-10T21:57:41.783Z,4.15
2022-10-10T22:05:17.642Z,4.60
2022-10-10T22:12:51.452Z,4.13
2022-10-10T22:20:26.569Z,4.38
2022-10-10T22:28:03.814Z,4.57
2022-10-10T22:35:41.396Z,4.45
2022-10-10T22:43:15.138Z,4.85
2022-10-10T22:50:59.748Z,4.03
2022-10-10T22:58:33.806Z,3.53
2022-10-10T23:06:09.932Z,3.47
2022-10-10T23:13:43.510Z,2.70
2022-10-10T23:21:18.717Z,2.13
2022-10-10T23:28:52.360Z,2.53
2022-10-10T23:36:27.526Z,1.92
2022-10-10T23:44:01.120Z,1.63
2022-10-10T23:51:36.052Z,1.40
2022-10-10T23:59:09.656Z,1.38
